Terminal Aerodrome Forecast
Issued by NWS

Home | Current Version | Previous Version | Text Only | Print | Product List | Glossary On
Versions: 1 2 3 4 5 6 7 8 9 10 11 12 13 14 15 16 17 18 19 20 21 22 23 24 25 26
000
FTUS44 KEWX 232200 AAA
TAFSSF
TAF AMD
KSSF 232212Z 2322/2418 13012G22KT P6SM SCT040 SCT250
     FM240100 14012KT P6SM SCT040
     FM240600 14010KT P6SM OVC012
     FM240900 14006KT P6SM OVC007
     FM241500 16008KT P6SM BKN015
     FM241700 16008KT P6SM BKN028=

USA.gov is the U.S. government's official web portal to all federal, state and local government web resources and services.